Thunder radar more information blitzortung!


Radar de pluja more information rain snow radar


Visita la nostra xarxa de llocs de meteo:

Template documentation
and downloads

And another site



No particular awareness of the weather is required.    There are no Weather-warnings

Pagina Historial Weather Underground text

Diari Resum Juny 12, 2017 Unitats:  Mètric    Imperial   Tant
« Previous Dia
SegĂźent Dia »
Diari Setmana Mensual Anual Personalitzada
  Maxima: Minima: Media:
Temperatura: -17.8 °C -7.6 °C -2.5 °C
Punt de rosada: -17.8 °C -14.2 °C -12.9 °C
Humitat: Humidity % 22 % 32 %
Wind Speed: 0 km/h 0 km/h 10.3 km/h
RĂ fegues de vent: 0 km/h - -
Vent:- - South
Pression baro: 0 hPa 34293.4 hPa -
Precipitacions: 0 mm    
Historical Graphs
 
 
Dades de taula per Juny 12, 2017
Temps Temperatura Punt de rosada Pression baro Vent Wind Speed RĂ fegues de vent Humitat Rainfall Rate (Hourly)
-17.8 °C -17.8 °C 0 hPa Calm     Humidity % 0 mm
00:00 -7.2 °C -13.9 °C 34395 hPa WSW 2.6 km/h 2.6 km/h 45 % 0 mm
00:02 -5.1 °C -14.1 °C 34361.1 hPa Calm     35 % 0 mm
00:07 -5.2 °C -14 °C 34361.1 hPa Calm     36 % 0 mm
00:10 -7.1 °C -13.7 °C 34395 hPa Calm     46 % 0 mm
00:20 -7.1 °C -13.7 °C 34395 hPa Calm   2.6 km/h 46 % 0 mm
00:30 -7.2 °C -14.2 °C 34395 hPa Calm     44 % 0 mm
00:40 -7.3 °C -13.9 °C 34395 hPa ESE 2.6 km/h 5.1 km/h 46 % 0 mm
00:50 -7.3 °C -13.9 °C 34395 hPa ENE 5.1 km/h 5.1 km/h 46 % 0 mm
01:00 -7.3 °C -13.9 °C 34395 hPa Calm     46 % 0 mm
01:10 -7.3 °C -13.9 °C 34428.8 hPa Calm     46 % 0 mm
01:20 -7.4 °C -14.1 °C 34395 hPa NE 2.6 km/h 5.1 km/h 46 % 0 mm
01:30 -7.5 °C -14.1 °C 34395 hPa Calm   2.6 km/h 46 % 0 mm
01:40 -7.6 °C -14.1 °C 34395 hPa SW 2.6 km/h 7.7 km/h 46 % 0 mm
01:50 -7.6 °C -14.2 °C 34395 hPa SW 5.1 km/h 5.1 km/h 46 % 0 mm
02:00 -7.4 °C -14.2 °C 34395 hPa WSW 2.6 km/h 5.1 km/h 45 % 0 mm
02:10 -7.2 °C -14.2 °C 34395 hPa WSW 2.6 km/h 5.1 km/h 44 % 0 mm
02:20 -6.9 °C -13.9 °C 34395 hPa Calm   2.6 km/h 44 % 0 mm
02:30 -6.4 °C -13.5 °C 34395 hPa Calm     44 % 0 mm
02:40 -6 °C -13.3 °C 34395 hPa Calm     43 % 0 mm
02:50 -5.9 °C -13.6 °C 34395 hPa SSW 2.6 km/h 5.1 km/h 41 % 0 mm
03:00 -5.8 °C -13.4 °C 34395 hPa Calm   2.6 km/h 41 % 0 mm
03:10 -5.5 °C -13.2 °C 34428.8 hPa Calm   5.1 km/h 41 % 0 mm
03:20 -4.9 °C -12.9 °C 34395 hPa Calm   2.6 km/h 40 % 0 mm
03:30 -5.1 °C -13.1 °C 34395 hPa South 2.6 km/h 5.1 km/h 40 % 0 mm
03:40 -5.1 °C -12.8 °C 34428.8 hPa SW 2.6 km/h 7.7 km/h 41 % 0 mm
03:50 -4.9 °C -13.1 °C 34428.8 hPa Calm   7.7 km/h 39 % 0 mm
04:00 -4.4 °C -12.6 °C 34428.8 hPa SW 2.6 km/h 2.6 km/h 39 % 0 mm
04:10 -4.3 °C -12.6 °C 34428.8 hPa SSE 5.1 km/h 10.3 km/h 39 % 0 mm
04:20 -3.9 °C -12.6 °C 34428.8 hPa SE 5.1 km/h 5.1 km/h 37 % 0 mm
04:30 -3.7 °C -12.4 °C 34428.8 hPa East 5.1 km/h 5.1 km/h 37 % 0 mm
04:40 -3.1 °C -11.9 °C 34428.8 hPa ENE 2.6 km/h 5.1 km/h 37 % 0 mm
04:50 -2.8 °C -11.7 °C 34428.8 hPa NNE 2.6 km/h 5.1 km/h 37 % 0 mm
05:00 -3 °C -12.1 °C 34428.8 hPa NE 7.7 km/h 12.9 km/h 36 % 0 mm
05:10 -3 °C -12.6 °C 34428.8 hPa ENE 7.7 km/h 12.9 km/h 34 % 0 mm
05:20 -2.3 °C -12.2 °C 34395 hPa ENE 5.1 km/h 5.1 km/h 33 % 0 mm
05:30 -2.5 °C -12.6 °C 34395 hPa East 7.7 km/h 12.9 km/h 32 % 0 mm
05:40 -2.4 °C -12.7 °C 34395 hPa ENE 7.7 km/h 12.9 km/h 31 % 0 mm
05:50 -2.3 °C -13 °C 34395 hPa East 7.7 km/h 12.9 km/h 30 % 0 mm
10:57 -2.1 °C -12.7 °C 34395 hPa ESE 11.9 km/h 11.9 km/h 30 % 0 mm
11:02 -1.9 °C -12.6 °C 34395 hPa SE 11.9 km/h 11.9 km/h 30 % 0 mm
11:03 -1.9 °C -12.6 °C 34395 hPa ESE 12.7 km/h 12.7 km/h 30 % 0 mm
11:08 -1.9 °C -12.9 °C 34395 hPa ESE 15 km/h 15 km/h 29 % 0 mm
11:13 -1.6 °C -12.6 °C 34395 hPa East 15 km/h 15 km/h 29 % 0 mm
11:18 -1.6 °C -12.6 °C 34395 hPa ENE 11.9 km/h 11.9 km/h 29 % 0 mm
11:23 -1.2 °C -12.6 °C 34395 hPa ESE 22 km/h 22 km/h 28 % 0 mm
11:28 -1.2 °C -12.3 °C 34395 hPa East 9.8 km/h 9.8 km/h 29 % 0 mm
11:33 -1.3 °C -12.7 °C 34395 hPa SE 17.9 km/h 17.9 km/h 28 % 0 mm
11:38 -1.2 °C -12.9 °C 34395 hPa South 9 km/h 9 km/h 27 % 0 mm
11:43 -0.9 °C -12.6 °C 34395 hPa South 15 km/h 15 km/h 27 % 0 mm
11:48 -1 °C -12.7 °C 34395 hPa NNE 11.9 km/h 11.9 km/h 27 % 0 mm
11:53 -0.9 °C -12.6 °C 34395 hPa NNE 6 km/h 6 km/h 27 % 0 mm
11:58 -0.7 °C -12.8 °C 34395 hPa South 6.3 km/h 6.3 km/h 26 % 0 mm
12:03 -0.8 °C -12.8 °C 34395 hPa ENE 20.9 km/h 20.9 km/h 26 % 0 mm
12:08 -0.7 °C -12.7 °C 34395 hPa East 15 km/h 15 km/h 26 % 0 mm
12:13 -0.6 °C -12.7 °C 34395 hPa ENE 11.9 km/h 11.9 km/h 26 % 0 mm
12:18 -0.7 °C -12.7 °C 34395 hPa NNE 15 km/h 15 km/h 26 % 0 mm
12:23 -0.7 °C -12.8 °C 34395 hPa ENE 9.8 km/h 14 km/h 26 % 0 mm
12:28 -0.4 °C -12.9 °C 34395 hPa NE 15 km/h 15 km/h 25 % 0 mm
12:33 -0.4 °C -12.5 °C 34395 hPa NE 11.9 km/h 11.9 km/h 26 % 0 mm
12:38 -0.3 °C -12.4 °C 34395 hPa SSE 11.9 km/h 11.9 km/h 26 % 0 mm
12:43 -0.2 °C -12.7 °C 34395 hPa ENE 15 km/h 15 km/h 25 % 0 mm
12:48 -0.2 °C -12.7 °C 34395 hPa ESE 15.3 km/h 15.3 km/h 25 % 0 mm
12:53 -0.3 °C -12.4 °C 34395 hPa ESE 16.6 km/h 16.6 km/h 26 % 0 mm
12:58 -0.1 °C -12.2 °C 34395 hPa ENE 16.1 km/h 16.1 km/h 26 % 0 mm
13:03 -0.2 °C -12.6 °C 34395 hPa NE 15 km/h 15 km/h 25 % 0 mm
13:08 0 °C -12.5 °C 34395 hPa ENE 15 km/h 15 km/h 25 % 0 mm
13:13 -0.1 °C -12.3 °C 34395 hPa ENE 15 km/h 15 km/h 26 % 0 mm
13:18 -0.2 °C -12.7 °C 34361.1 hPa NNE 17.9 km/h 17.9 km/h 25 % 0 mm
13:23 0.1 °C -12.8 °C 34361.1 hPa SE 19.2 km/h 19.2 km/h 24 % 0 mm
13:28 -0.2 °C -12.6 °C 34361.1 hPa SE 23.8 km/h 23.8 km/h 25 % 0 mm
13:33 0.1 °C -12.4 °C 34395 hPa SE 35.7 km/h 35.7 km/h 25 % 0 mm
13:38 -0.3 °C -12.4 °C 34395 hPa ESE 20.9 km/h 20.9 km/h 26 % 0 mm
13:43 -0.2 °C -12.3 °C 34395 hPa NE 20.9 km/h 20.9 km/h 26 % 0 mm
13:48 -0.2 °C -12.3 °C 34395 hPa ENE 20.3 km/h 20.3 km/h 26 % 0 mm
13:53 -0.3 °C -12.4 °C 34395 hPa SE 20.9 km/h 20.9 km/h 26 % 0 mm
13:58 -0.1 °C -12.3 °C 34395 hPa SSE 20.9 km/h 20.9 km/h 26 % 0 mm
14:03 -0.2 °C -12.3 °C 34395 hPa ESE 20.9 km/h 20.9 km/h 26 % 0 mm
14:08 -0.3 °C -12.4 °C 34395 hPa East 26.9 km/h 26.9 km/h 26 % 0 mm
14:13 -0.6 °C -13 °C 34395 hPa ESE 33.6 km/h 33.6 km/h 25 % 0 mm
14:18 -0.7 °C -13.1 °C 34395 hPa ENE 20.9 km/h 20.9 km/h 25 % 0 mm
14:23 -0.7 °C -13.1 °C 34395 hPa SSE 27.2 km/h 27.2 km/h 25 % 0 mm
14:28 -0.7 °C -13.1 °C 34395 hPa NNE 15 km/h 15 km/h 25 % 0 mm
14:33 -0.7 °C -13.1 °C 34361.1 hPa ESE 27.2 km/h 27.2 km/h 25 % 0 mm
14:38 -0.8 °C -13.5 °C 34361.1 hPa NE 26.9 km/h 26.9 km/h 24 % 0 mm
14:43 -0.6 °C -13.3 °C 34361.1 hPa East 20.9 km/h 20.9 km/h 24 % 0 mm
14:48 -0.6 °C -13 °C 34361.1 hPa ESE 16.6 km/h 16.6 km/h 25 % 0 mm
14:53 -0.6 °C -12.9 °C 34361.1 hPa East 20.9 km/h 20.9 km/h 25 % 0 mm
14:58 -0.5 °C -12.9 °C 34361.1 hPa ENE 23.8 km/h 23.8 km/h 25 % 0 mm
15:03 -0.8 °C -13.2 °C 34361.1 hPa ESE 26.9 km/h 26.9 km/h 25 % 0 mm
15:08 -0.7 °C -13.1 °C 34361.1 hPa SE 15 km/h 18.3 km/h 25 % 0 mm
15:13 -0.7 °C -12.8 °C 34361.1 hPa ESE 20.9 km/h 20.9 km/h 26 % 0 mm
15:18 -0.6 °C -12.7 °C 34361.1 hPa SE 23.8 km/h 23.8 km/h 26 % 0 mm
15:23 -0.4 °C -12.6 °C 34361.1 hPa ESE 20.9 km/h 20.9 km/h 26 % 0 mm
15:28 -0.6 °C -12.7 °C 34361.1 hPa ESE 26.9 km/h 26.9 km/h 26 % 0 mm
15:33 -0.6 °C -12.7 °C 34327.3 hPa SE 20.9 km/h 20.9 km/h 26 % 0 mm
15:38 -0.4 °C -12.6 °C 34327.3 hPa SSE 15.3 km/h 15.3 km/h 26 % 0 mm
15:43 -0.6 °C -12.7 °C 34327.3 hPa SE 23.8 km/h 23.8 km/h 26 % 0 mm
15:48 -0.6 °C -12.7 °C 34361.1 hPa East 20.9 km/h 22.5 km/h 26 % 0 mm
15:53 -0.6 °C -12.7 °C 34361.1 hPa ESE 23.8 km/h 23.8 km/h 26 % 0 mm
15:58 -0.6 °C -12.7 °C 34361.1 hPa NE 17.9 km/h 17.9 km/h 26 % 0 mm
16:03 -0.5 °C -12.6 °C 34327.3 hPa East 15.6 km/h 15.6 km/h 26 % 0 mm
16:08 -0.6 °C -12.7 °C 34327.3 hPa ESE 23.8 km/h 23.8 km/h 26 % 0 mm
16:13 -0.5 °C -12.6 °C 34327.3 hPa ENE 12.7 km/h 12.7 km/h 26 % 0 mm
16:18 -0.4 °C -12.6 °C 34327.3 hPa East 26.9 km/h 26.9 km/h 26 % 0 mm
16:23 -0.4 °C -12.6 °C 34327.3 hPa ESE 17.9 km/h 17.9 km/h 26 % 0 mm
16:28 -0.6 °C -12.7 °C 34327.3 hPa ENE 20.9 km/h 20.9 km/h 26 % 0 mm
16:33 -0.6 °C -12.7 °C 34327.3 hPa ESE 17.9 km/h 17.9 km/h 26 % 0 mm
16:38 -0.5 °C -12.6 °C 34327.3 hPa ESE 17.9 km/h 17.9 km/h 26 % 0 mm
16:43 -0.6 °C -12.7 °C 34327.3 hPa ESE 17.9 km/h 17.9 km/h 26 % 0 mm
16:48 -0.5 °C -12.6 °C 34327.3 hPa ENE 23.8 km/h 23.8 km/h 26 % 0 mm
16:53 -0.3 °C -12.1 °C 34327.3 hPa East 15.6 km/h 15.6 km/h 27 % 0 mm
16:58 -0.1 °C -12.6 °C 34327.3 hPa SE 11.9 km/h 11.9 km/h 25 % 0 mm
17:03 0.2 °C -12.7 °C 34327.3 hPa ESE 6 km/h 6 km/h 24 % 0 mm
17:08 0 °C -12.8 °C 34327.3 hPa SSE 6 km/h 6 km/h 24 % 0 mm
17:13 0.5 °C -12.4 °C 34327.3 hPa SW 6 km/h 6 km/h 24 % 0 mm
17:18 0.7 °C -12.6 °C 34327.3 hPa SW 15 km/h 15 km/h 23 % 0 mm
17:23 0.7 °C -12.6 °C 34327.3 hPa SW 8.5 km/h 8.5 km/h 23 % 0 mm
17:28 0.8 °C -12.6 °C 34327.3 hPa SW 15.3 km/h 15.3 km/h 23 % 0 mm
17:33 0.6 °C -12.7 °C 34327.3 hPa SW 19.2 km/h 19.2 km/h 23 % 0 mm
17:38 0.7 °C -12.6 °C 34327.3 hPa SSW 6 km/h 6 km/h 23 % 0 mm
17:43 0.7 °C -12.6 °C 34327.3 hPa WSW 12.7 km/h 12.7 km/h 23 % 0 mm
17:48 0.6 °C -12.7 °C 34327.3 hPa SW 19.6 km/h 19.6 km/h 23 % 0 mm
17:53 0.6 °C -13 °C 34327.3 hPa WSW 15 km/h 15 km/h 22 % 0 mm
17:58 0.8 °C -12.5 °C 34327.3 hPa WNW 6 km/h 6 km/h 23 % 0 mm
18:03 0.9 °C -12.4 °C 34327.3 hPa WSW 6 km/h 6 km/h 23 % 0 mm
18:08 0.8 °C -12.5 °C 34327.3 hPa SSW 9 km/h 11.1 km/h 23 % 0 mm
18:13 0.7 °C -13 °C 34327.3 hPa NW 11.9 km/h 11.9 km/h 22 % 0 mm
18:18 0.7 °C -12.6 °C 34327.3 hPa SW 9.3 km/h 9.3 km/h 23 % 0 mm
18:23 0.7 °C -12.6 °C 34327.3 hPa West 11.9 km/h 11.9 km/h 23 % 0 mm
18:28 0.6 °C -12.7 °C 34327.3 hPa SW 6 km/h 9.3 km/h 23 % 0 mm
18:33 0.6 °C -12.7 °C 34327.3 hPa SSW 9 km/h 9 km/h 23 % 0 mm
18:38 0.5 °C -12.8 °C 34327.3 hPa SW 11.9 km/h 11.9 km/h 23 % 0 mm
18:43 0.5 °C -12.8 °C 34327.3 hPa SW 7.6 km/h 8.5 km/h 23 % 0 mm
18:48 0.3 °C -12.9 °C 34327.3 hPa WSW 15 km/h 15 km/h 23 % 0 mm
18:53 0.2 °C -13.1 °C 34327.3 hPa West 6.8 km/h 6.8 km/h 23 % 0 mm
18:58 0 °C -13.2 °C 34327.3 hPa WSW 15.3 km/h 15.3 km/h 23 % 0 mm
19:03 0 °C -13.2 °C 34327.3 hPa SSW 8.5 km/h 8.5 km/h 23 % 0 mm
19:08 -0.1 °C -12.9 °C 34327.3 hPa SSW 20.9 km/h 20.9 km/h 24 % 0 mm
19:13 -0.2 °C -13 °C 34327.3 hPa WSW 23.8 km/h 23.8 km/h 24 % 0 mm
19:18 -0.4 °C -13.2 °C 34327.3 hPa SW 15 km/h 15 km/h 24 % 0 mm
19:20 -4.4 °C -12.4 °C 34327.3 hPa SW 5.1 km/h 7.7 km/h 40 % 0 mm
19:23 -0.4 °C -13.2 °C 34327.3 hPa WSW 12.2 km/h 12.2 km/h 24 % 0 mm
19:28 -0.5 °C -13.2 °C 34327.3 hPa WSW 11.9 km/h 11.9 km/h 24 % 0 mm
19:30 -4.4 °C -12.4 °C 34327.3 hPa WSW 2.6 km/h 5.1 km/h 40 % 0 mm
19:33 -0.6 °C -13.3 °C 34327.3 hPa SSW 15 km/h 15 km/h 24 % 0 mm
19:38 -0.8 °C -13.2 °C 34327.3 hPa South 17.9 km/h 17.9 km/h 25 % 0 mm
19:40 -4.5 °C -12.3 °C 34327.3 hPa Calm   2.6 km/h 41 % 0 mm
19:43 -0.8 °C -13.2 °C 34327.3 hPa SSW 9 km/h 9.3 km/h 25 % 0 mm
19:48 -0.9 °C -13.3 °C 34327.3 hPa WSW 6.3 km/h 11.1 km/h 25 % 0 mm
19:50 -4.6 °C -12.3 °C 34327.3 hPa WSW 2.6 km/h 2.6 km/h 41 % 0 mm
19:53 -1.1 °C -13.4 °C 34327.3 hPa WSW 6.3 km/h 11.1 km/h 25 % 0 mm
19:58 -1.2 °C -13.2 °C 34327.3 hPa SW 7.6 km/h 7.6 km/h 26 % 0 mm
20:00 -4.7 °C -12.5 °C 34327.3 hPa SW 2.6 km/h 5.1 km/h 41 % 0 mm
20:03 -1.4 °C -13.3 °C 34327.3 hPa SSW 6.3 km/h 15.3 km/h 26 % 0 mm
20:08 -1.4 °C -13.4 °C 34327.3 hPa SW 11.9 km/h 11.9 km/h 26 % 0 mm
20:10 -4.9 °C -12.7 °C 34327.3 hPa SW 5.1 km/h 7.7 km/h 41 % 0 mm
20:13 -1.5 °C -13.4 °C 34327.3 hPa SW 9 km/h 9.3 km/h 26 % 0 mm
20:18 -1.6 °C -13.5 °C 34361.1 hPa SW 15 km/h 15 km/h 26 % 0 mm
20:20 -5 °C -12.6 °C 34327.3 hPa SW 2.6 km/h 5.1 km/h 42 % 0 mm
20:23 -1.7 °C -13.3 °C 34361.1 hPa SW 11.9 km/h 11.9 km/h 27 % 0 mm
20:28 -1.8 °C -13.4 °C 34361.1 hPa WSW 11.1 km/h 11.1 km/h 27 % 0 mm
20:29 -1.8 °C -13.4 °C 34361.1 hPa SW 11.9 km/h 11.9 km/h 27 % 0 mm
20:30 -5 °C -12.6 °C 34327.3 hPa Calm   5.1 km/h 42 % 0 mm
20:34 -1.9 °C -13.4 °C 34327.3 hPa SW 15 km/h 15 km/h 27 % 0 mm
20:39 -2 °C -13.3 °C 34327.3 hPa SW 15 km/h 15 km/h 28 % 0 mm
20:40 -5.1 °C -12.2 °C 34327.3 hPa WNW 2.6 km/h 5.1 km/h 44 % 0 mm
20:44 -2.1 °C -13.3 °C 34327.3 hPa WSW 6.3 km/h 6.3 km/h 28 % 0 mm
20:49 -2.2 °C -13.4 °C 34293.4 hPa SW 17.9 km/h 17.9 km/h 28 % 0 mm
20:50 -5.1 °C -12.3 °C 34327.3 hPa Calm   2.6 km/h 44 % 0 mm
20:54 -2.3 °C -13.6 °C 34293.4 hPa SW 11.9 km/h 11.9 km/h 28 % 0 mm
20:59 -2.3 °C -13.6 °C 34293.4 hPa South 15 km/h 15 km/h 28 % 0 mm
21:00 -5.1 °C -12.2 °C 34327.3 hPa Calm   2.6 km/h 44 % 0 mm
21:04 -2.4 °C -13.4 °C 34327.3 hPa SW 9 km/h 9 km/h 29 % 0 mm
21:09 -2.6 °C -13.4 °C 34327.3 hPa WSW 17.9 km/h 17.9 km/h 29 % 0 mm
21:10 -5.1 °C -12.1 °C 34327.3 hPa West 2.6 km/h 2.6 km/h 45 % 0 mm
21:14 -2.7 °C -13.6 °C 34327.3 hPa SW 15 km/h 15 km/h 29 % 0 mm
21:19 -2.7 °C -13.6 °C 34327.3 hPa SW 9 km/h 9 km/h 29 % 0 mm
21:20 -5.4 °C -12.4 °C 34327.3 hPa SW 5.1 km/h 5.1 km/h 45 % 0 mm
21:24 -2.8 °C -13.4 °C 34327.3 hPa NW 8 km/h 8 km/h 30 % 0 mm
21:29 -2.9 °C -13.4 °C 34327.3 hPa West 6.3 km/h 6.3 km/h 30 % 0 mm
21:30 -5.4 °C -12.2 °C 34327.3 hPa WSW 2.6 km/h 5.1 km/h 46 % 0 mm
21:34 -3 °C -13.6 °C 34327.3 hPa WSW 6 km/h 6 km/h 30 % 0 mm
21:39 -3.1 °C -13.3 °C 34327.3 hPa Calm     31 % 0 mm
21:44 -3.1 °C -13.1 °C 34327.3 hPa Calm     32 % 0 mm
21:49 -3.2 °C -13.2 °C 34327.3 hPa SW 6 km/h 6 km/h 32 % 0 mm
21:50 -5.2 °C -12 °C 34327.3 hPa WSW 2.6 km/h 5.1 km/h 46 % 0 mm
21:54 -3.2 °C -13.2 °C 34327.3 hPa SSW 6 km/h 6 km/h 32 % 0 mm
21:59 -3.2 °C -12.9 °C 34327.3 hPa SW 6 km/h 6 km/h 33 % 0 mm
22:00 -5.3 °C -12.1 °C 34327.3 hPa WSW 2.6 km/h 5.1 km/h 46 % 0 mm
22:04 -3.3 °C -13 °C 34327.3 hPa SW 5.6 km/h   33 % 0 mm
22:09 -3.3 °C -13.1 °C 34327.3 hPa SW 6.3 km/h 6.3 km/h 33 % 0 mm
22:10 -5.5 °C -12.3 °C 34293.4 hPa WSW 5.1 km/h 7.7 km/h 46 % 0 mm
22:14 -3.4 °C -12.9 °C 34327.3 hPa SW 3.1 km/h 3.7 km/h 34 % 0 mm
22:19 -3.4 °C -12.9 °C 34327.3 hPa SW 3.7 km/h   34 % 0 mm
22:20 -5.7 °C -12.2 °C 34327.3 hPa SW 2.6 km/h 5.1 km/h 47 % 0 mm
22:24 -3.5 °C -12.9 °C 34327.3 hPa SW 4.2 km/h 4.2 km/h 34 % 0 mm
22:29 -3.6 °C -13 °C 34327.3 hPa SW 6 km/h 6 km/h 34 % 0 mm
22:30 -5.7 °C -12.3 °C 34327.3 hPa Calm     47 % 0 mm
22:34 -3.6 °C -12.8 °C 34327.3 hPa SW 5.1 km/h 5.1 km/h 35 % 0 mm
22:39 -3.6 °C -12.8 °C 34327.3 hPa SW 4.2 km/h 4.2 km/h 35 % 0 mm
22:40 -5.7 °C -12.3 °C 34293.4 hPa Calm     47 % 0 mm
22:44 -3.7 °C -12.9 °C 34327.3 hPa SW 3.7 km/h 3.7 km/h 35 % 0 mm
22:49 -3.7 °C -12.9 °C 34327.3 hPa SW 6 km/h 6 km/h 35 % 0 mm
22:50 -6.1 °C -12.4 °C 34293.4 hPa WNW 2.6 km/h 5.1 km/h 48 % 0 mm
22:54 -3.8 °C -12.7 °C 34327.3 hPa West 6 km/h 6 km/h 36 % 0 mm
22:59 -3.8 °C -12.8 °C 34327.3 hPa WSW 6 km/h 6 km/h 36 % 0 mm
23:00 -6.1 °C -12.4 °C 34293.4 hPa Calm   2.6 km/h 48 % 0 mm
23:04 -3.9 °C -12.8 °C 34293.4 hPa WSW 6 km/h 6 km/h 36 % 0 mm
23:09 -3.9 °C -12.8 °C 34293.4 hPa WSW 9 km/h 9 km/h 36 % 0 mm
23:10 -6.2 °C -12.2 °C 34293.4 hPa Calm   2.6 km/h 50 % 0 mm
23:14 -3.9 °C -12.6 °C 34293.4 hPa SW 6.3 km/h 6.3 km/h 37 % 0 mm
23:19 -3.9 °C -12.4 °C 34327.3 hPa West 7.6 km/h 7.6 km/h 38 % 0 mm
23:20 -6.2 °C -12.2 °C 34293.4 hPa NW 2.6 km/h 5.1 km/h 50 % 0 mm
23:24 -3.9 °C -12.4 °C 34327.3 hPa West 6 km/h 6 km/h 38 % 0 mm
23:29 -4.1 °C -12.6 °C 34327.3 hPa WSW 6 km/h 6 km/h 38 % 0 mm
23:30 -6.2 °C -12.2 °C 34293.4 hPa WSW 2.6 km/h 5.1 km/h 50 % 0 mm
23:34 -4.1 °C -12.3 °C 34327.3 hPa WSW 6 km/h 6 km/h 39 % 0 mm
23:39 -4.1 °C -12.4 °C 34327.3 hPa WSW 6.3 km/h 6.3 km/h 39 % 0 mm
23:40 -6.2 °C -12 °C 34293.4 hPa Calm   2.6 km/h 51 % 0 mm
23:44 -4.1 °C -12.4 °C 34327.3 hPa WSW 6 km/h 6 km/h 39 % 0 mm
23:49 -4.2 °C -12.4 °C 34327.3 hPa SW 6 km/h 6 km/h 39 % 0 mm
23:50 -6.4 °C -12.2 °C 34293.4 hPa Calm   2.6 km/h 51 % 0 mm
23:54 -4.2 °C -12.3 °C 34327.3 hPa SW 6 km/h 6 km/h 40 % 0 mm
23:59 -4.3 °C -12.3 °C 34327.3 hPa SW 6.8 km/h 6.8 km/h 40 % 0 mm
Meteo Sesrovires
Elogis d' Weather Underground - 1.5 mb

Guio original per  Jim McMurry - jmcmurry@mwt.net Adaptat per a la plantilla per  Wim van der Kuil - Leuven-Template.eu

Trobareu la nostra informacio del temps tambe a:

Weather Underground

AWEKAS